sensor_id;sensor_type;location;lat;lon;timestamp;pressure;altitude;pressure_sealevel;temperature;humidity
13422;BME280;6782;55.904;13.396;2022-09-09T00:00:59;62650.44;;;-143.06;100.00
13422;BME280;6782;55.904;13.396;2022-09-09T00:03:54;62650.44;;;-143.06;100.00
13422;BME280;6782;55.904;13.396;2022-09-09T00:06:46;62650.44;;;-143.06;100.00
13422;BME280;6782;55.904;13.396;2022-09-09T00:09:43;62650.44;;;-143.06;100.00
13422;BME280;6782;55.904;13.396;2022-09-09T00:12:39;62650.44;;;-143.06;100.00
13422;BME280;6782;55.904;13.396;2022-09-09T00:15:34;62650.44;;;-143.06;100.00
13422;BME280;6782;55.904;13.396;2022-09-09T00:18:44;68370.22;;;19.19;100.00
13422;BME280;6782;55.904;13.396;2022-09-09T00:21:35;68337.38;;;18.91;100.00
13422;BME280;6782;55.904;13.396;2022-09-09T00:24:27;68306.72;;;18.65;100.00
13422;BME280;6782;55.904;13.396;2022-09-09T00:27:21;68278.44;;;18.41;100.00
13422;BME280;6782;55.904;13.396;2022-09-09T00:30:16;68250.38;;;18.18;100.00
13422;BME280;6782;55.904;13.396;2022-09-09T00:33:11;68223.94;;;17.95;100.00
13422;BME280;6782;55.904;13.396;2022-09-09T00:36:03;68198.38;;;17.74;100.00
13422;BME280;6782;55.904;13.396;2022-09-09T00:38:55;68174.81;;;17.54;100.00
13422;BME280;6782;55.904;13.396;2022-09-09T00:41:52;68153.59;;;17.36;100.00
13422;BME280;6782;55.904;13.396;2022-09-09T00:44:52;68132.81;;;17.18;100.00
13422;BME280;6782;55.904;13.396;2022-09-09T00:47:43;68114.16;;;17.03;100.00
13422;BME280;6782;55.904;13.396;2022-09-09T00:50:40;67848.16;;;14.78;100.00
13422;BME280;6782;55.904;13.396;2022-09-09T00:53:51;67846.97;;;14.77;100.00
13422;BME280;6782;55.904;13.396;2022-09-09T00:56:47;67847.41;;;14.77;100.00
13422;BME280;6782;55.904;13.396;2022-09-09T00:59:47;67847.88;;;14.78;100.00
13422;BME280;6782;55.904;13.396;2022-09-09T01:02:39;67848.19;;;14.78;100.00
13422;BME280;6782;55.904;13.396;2022-09-09T01:05:34;67848.63;;;14.78;100.00
13422;BME280;6782;55.904;13.396;2022-09-09T01:11:48;67848.22;;;14.77;100.00
13422;BME280;6782;55.904;13.396;2022-09-09T01:14:41;67848.09;;;14.77;100.00
13422;BME280;6782;55.904;13.396;2022-09-09T01:17:31;67847.63;;;14.77;100.00
13422;BME280;6782;55.904;13.396;2022-09-09T01:20:24;67847.63;;;14.77;100.00
13422;BME280;6782;55.904;13.396;2022-09-09T01:23:30;62650.44;;;-143.06;100.00
13422;BME280;6782;55.904;13.396;2022-09-09T01:26:39;62650.44;;;-143.06;100.00
13422;BME280;6782;55.904;13.396;2022-09-09T01:29:28;67845.81;;;14.76;100.00
13422;BME280;6782;55.904;13.396;2022-09-09T01:32:40;67845.81;;;14.76;100.00
13422;BME280;6782;55.904;13.396;2022-09-09T01:35:35;67845.56;;;14.75;100.00
13422;BME280;6782;55.904;13.396;2022-09-09T01:38:27;67845.56;;;14.75;100.00
13422;BME280;6782;55.904;13.396;2022-09-09T01:41:15;67842.72;;;14.73;100.00
13422;BME280;6782;55.904;13.396;2022-09-09T01:44:04;67839.75;;;14.70;100.00
13422;BME280;6782;55.904;13.396;2022-09-09T01:46:52;67835.88;;;14.67;100.00
13422;BME280;6782;55.904;13.396;2022-09-09T01:49:39;67831.88;;;14.63;100.00
13422;BME280;6782;55.904;13.396;2022-09-09T01:52:27;67828.28;;;14.60;100.00
13422;BME280;6782;55.904;13.396;2022-09-09T01:55:15;67824.25;;;14.57;100.00
13422;BME280;6782;55.904;13.396;2022-09-09T01:58:12;67821.28;;;14.54;100.00
13422;BME280;6782;55.904;13.396;2022-09-09T02:01:13;67817.56;;;14.51;100.00
13422;BME280;6782;55.904;13.396;2022-09-09T02:04:07;67814.88;;;14.49;100.00
13422;BME280;6782;55.904;13.396;2022-09-09T02:06:58;67811.44;;;-143.06;100.00
13422;BME280;6782;55.904;13.396;2022-09-09T02:09:50;67808.75;;;14.44;100.00
13422;BME280;6782;55.904;13.396;2022-09-09T02:12:43;67805.63;;;14.41;100.00
13422;BME280;6782;55.904;13.396;2022-09-09T02:15:35;67803.28;;;14.39;100.00
13422;BME280;6782;55.904;13.396;2022-09-09T02:18:31;67799.22;;;14.36;100.00
13422;BME280;6782;55.904;13.396;2022-09-09T02:21:22;67795.97;;;14.33;100.00
13422;BME280;6782;55.904;13.396;2022-09-09T02:24:13;67792.56;;;14.30;100.00
13422;BME280;6782;55.904;13.396;2022-09-09T02:27:04;67789.13;;;14.27;100.00
13422;BME280;6782;55.904;13.396;2022-09-09T02:29:56;67785.72;;;14.24;100.00
13422;BME280;6782;55.904;13.396;2022-09-09T02:32:46;67782.31;;;14.21;100.00
13422;BME280;6782;55.904;13.396;2022-09-09T02:35:38;67779.78;;;14.19;100.00
13422;BME280;6782;55.904;13.396;2022-09-09T02:38:28;67777.59;;;14.17;100.00
13422;BME280;6782;55.904;13.396;2022-09-09T02:41:17;67775.63;;;14.15;100.00
13422;BME280;6782;55.904;13.396;2022-09-09T02:44:08;67773.56;;;14.13;100.00
13422;BME280;6782;55.904;13.396;2022-09-09T02:47:18;67771.66;;;14.11;100.00
13422;BME280;6782;55.904;13.396;2022-09-09T02:50:12;62650.44;;;-143.06;100.00
13422;BME280;6782;55.904;13.396;2022-09-09T02:53:07;62650.44;;;-143.06;100.00
13422;BME280;6782;55.904;13.396;2022-09-09T02:55:58;62650.44;;;-143.06;100.00
13422;BME280;6782;55.904;13.396;2022-09-09T02:58:47;62650.44;;;-143.06;100.00
13422;BME280;6782;55.904;13.396;2022-09-09T03:01:35;62650.44;;;-143.06;100.00
13422;BME280;6782;55.904;13.396;2022-09-09T03:04:22;62650.44;;;-143.06;100.00
13422;BME280;6782;55.904;13.396;2022-09-09T03:07:10;62650.44;;;-143.06;100.00
13422;BME280;6782;55.904;13.396;2022-09-09T03:09:59;62650.44;;;-143.06;100.00
13422;BME280;6782;55.904;13.396;2022-09-09T03:12:46;62650.44;;;-143.06;100.00
13422;BME280;6782;55.904;13.396;2022-09-09T03:15:34;62650.44;;;-143.06;100.00
13422;BME280;6782;55.904;13.396;2022-09-09T03:18:21;62650.44;;;-143.06;100.00
13422;BME280;6782;55.904;13.396;2022-09-09T03:21:08;62650.44;;;-143.06;100.00
13422;BME280;6782;55.904;13.396;2022-09-09T03:23:56;62650.44;;;-143.06;100.00
13422;BME280;6782;55.904;13.396;2022-09-09T03:26:45;62650.44;;;-143.06;100.00
13422;BME280;6782;55.904;13.396;2022-09-09T03:29:32;62650.44;;;-143.06;100.00
13422;BME280;6782;55.904;13.396;2022-09-09T03:32:20;67765.06;;;14.06;100.00
13422;BME280;6782;55.904;13.396;2022-09-09T03:35:08;62650.44;;;-143.06;100.00
13422;BME280;6782;55.904;13.396;2022-09-09T03:37:55;62650.44;;;-143.06;100.00
13422;BME280;6782;55.904;13.396;2022-09-09T03:40:49;62650.44;;;-143.06;100.00
13422;BME280;6782;55.904;13.396;2022-09-09T03:43:38;62650.44;;;-143.06;100.00
13422;BME280;6782;55.904;13.396;2022-09-09T03:46:25;62650.44;;;-143.06;100.00
13422;BME280;6782;55.904;13.396;2022-09-09T03:49:13;62650.44;;;-143.06;100.00
13422;BME280;6782;55.904;13.396;2022-09-09T03:52:01;62650.44;;;-143.06;100.00
13422;BME280;6782;55.904;13.396;2022-09-09T03:54:48;62650.44;;;-143.06;100.00
13422;BME280;6782;55.904;13.396;2022-09-09T03:57:35;62650.44;;;-143.06;100.00
13422;BME280;6782;55.904;13.396;2022-09-09T04:00:25;62650.44;;;-143.06;100.00
13422;BME280;6782;55.904;13.396;2022-09-09T04:03:12;62650.44;;;-143.06;100.00
13422;BME280;6782;55.904;13.396;2022-09-09T04:06:02;62650.44;;;-143.06;100.00
13422;BME280;6782;55.904;13.396;2022-09-09T04:08:50;62650.44;;;-143.06;100.00
13422;BME280;6782;55.904;13.396;2022-09-09T04:11:38;62650.44;;;-143.06;100.00
13422;BME280;6782;55.904;13.396;2022-09-09T04:14:25;62650.44;;;-143.06;100.00
13422;BME280;6782;55.904;13.396;2022-09-09T04:17:16;62650.44;;;-143.06;100.00
13422;BME280;6782;55.904;13.396;2022-09-09T04:20:03;62650.44;;;-143.06;100.00
13422;BME280;6782;55.904;13.396;2022-09-09T04:22:50;62650.44;;;-143.06;100.00
13422;BME280;6782;55.904;13.396;2022-09-09T04:25:38;62650.44;;;-143.06;100.00
13422;BME280;6782;55.904;13.396;2022-09-09T04:28:31;62650.44;;;-143.06;100.00
13422;BME280;6782;55.904;13.396;2022-09-09T04:31:20;62650.44;;;-143.06;100.00
13422;BME280;6782;55.904;13.396;2022-09-09T04:34:10;62650.44;;;-143.06;100.00
13422;BME280;6782;55.904;13.396;2022-09-09T04:36:57;62650.44;;;-143.06;100.00
13422;BME280;6782;55.904;13.396;2022-09-09T04:39:46;62650.44;;;-143.06;100.00
13422;BME280;6782;55.904;13.396;2022-09-09T04:42:34;62650.44;;;-143.06;100.00
13422;BME280;6782;55.904;13.396;2022-09-09T04:45:22;62650.44;;;-143.06;100.00
13422;BME280;6782;55.904;13.396;2022-09-09T04:48:09;62650.44;;;-143.06;100.00
13422;BME280;6782;55.904;13.396;2022-09-09T04:50:59;62650.44;;;-143.06;100.00
13422;BME280;6782;55.904;13.396;2022-09-09T04:53:47;62650.44;;;-143.06;100.00
13422;BME280;6782;55.904;13.396;2022-09-09T04:56:35;62650.44;;;-143.06;100.00
13422;BME280;6782;55.904;13.396;2022-09-09T04:59:22;62650.44;;;-143.06;100.00
13422;BME280;6782;55.904;13.396;2022-09-09T05:02:10;62650.44;;;-143.06;100.00
13422;BME280;6782;55.904;13.396;2022-09-09T05:04:57;62650.44;;;-143.06;100.00
13422;BME280;6782;55.904;13.396;2022-09-09T05:07:47;62650.44;;;-143.06;100.00
13422;BME280;6782;55.904;13.396;2022-09-09T05:10:40;62650.44;;;-143.06;100.00
13422;BME280;6782;55.904;13.396;2022-09-09T05:13:28;62650.44;;;-143.06;100.00
13422;BME280;6782;55.904;13.396;2022-09-09T05:16:18;62650.44;;;-143.06;100.00
13422;BME280;6782;55.904;13.396;2022-09-09T05:19:06;62650.44;;;-143.06;100.00
13422;BME280;6782;55.904;13.396;2022-09-09T05:21:53;62650.44;;;-143.06;100.00
13422;BME280;6782;55.904;13.396;2022-09-09T05:24:43;62650.44;;;-143.06;100.00
13422;BME280;6782;55.904;13.396;2022-09-09T05:27:34;62650.44;;;-143.06;100.00
13422;BME280;6782;55.904;13.396;2022-09-09T05:30:23;62650.44;;;-143.06;100.00
13422;BME280;6782;55.904;13.396;2022-09-09T05:33:12;62650.44;;;-143.06;100.00
13422;BME280;6782;55.904;13.396;2022-09-09T05:36:01;62650.44;;;-143.06;100.00
13422;BME280;6782;55.904;13.396;2022-09-09T05:38:50;62650.44;;;-143.06;100.00
13422;BME280;6782;55.904;13.396;2022-09-09T05:41:41;62650.44;;;-143.06;100.00
13422;BME280;6782;55.904;13.396;2022-09-09T05:44:28;62650.44;;;-143.06;100.00
13422;BME280;6782;55.904;13.396;2022-09-09T05:47:15;62650.44;;;-143.06;100.00
13422;BME280;6782;55.904;13.396;2022-09-09T05:50:04;62650.44;;;-143.06;100.00
13422;BME280;6782;55.904;13.396;2022-09-09T05:52:54;62650.44;;;-143.06;100.00
13422;BME280;6782;55.904;13.396;2022-09-09T05:55:42;62650.44;;;-143.06;100.00
13422;BME280;6782;55.904;13.396;2022-09-09T05:58:33;62650.44;;;-143.06;100.00
13422;BME280;6782;55.904;13.396;2022-09-09T06:01:23;62650.44;;;-143.06;100.00
13422;BME280;6782;55.904;13.396;2022-09-09T06:04:10;62650.44;;;-143.06;100.00
13422;BME280;6782;55.904;13.396;2022-09-09T06:06:58;62650.44;;;-143.06;100.00
13422;BME280;6782;55.904;13.396;2022-09-09T06:09:45;62650.44;;;-143.06;100.00
13422;BME280;6782;55.904;13.396;2022-09-09T06:12:33;62650.44;;;-143.06;100.00
13422;BME280;6782;55.904;13.396;2022-09-09T06:15:22;62650.44;;;-143.06;100.00
13422;BME280;6782;55.904;13.396;2022-09-09T06:18:09;62650.44;;;-143.06;100.00
13422;BME280;6782;55.904;13.396;2022-09-09T06:20:57;62650.44;;;-143.06;100.00
13422;BME280;6782;55.904;13.396;2022-09-09T06:23:46;62650.44;;;-143.06;100.00
13422;BME280;6782;55.904;13.396;2022-09-09T06:26:35;62650.44;;;-143.06;100.00
13422;BME280;6782;55.904;13.396;2022-09-09T06:29:22;62650.44;;;-143.06;100.00
13422;BME280;6782;55.904;13.396;2022-09-09T06:32:11;62650.44;;;-143.06;100.00
13422;BME280;6782;55.904;13.396;2022-09-09T06:34:58;62650.44;;;-143.06;100.00
13422;BME280;6782;55.904;13.396;2022-09-09T06:37:47;62650.44;;;-143.06;100.00
13422;BME280;6782;55.904;13.396;2022-09-09T06:40:34;62650.44;;;-143.06;100.00
13422;BME280;6782;55.904;13.396;2022-09-09T06:43:22;62650.44;;;-143.06;100.00
13422;BME280;6782;55.904;13.396;2022-09-09T06:46:12;62650.44;;;-143.06;100.00
13422;BME280;6782;55.904;13.396;2022-09-09T06:49:01;62650.44;;;-143.06;100.00
13422;BME280;6782;55.904;13.396;2022-09-09T06:51:48;62650.44;;;-143.06;100.00
13422;BME280;6782;55.904;13.396;2022-09-09T06:54:36;62650.44;;;-143.06;100.00
13422;BME280;6782;55.904;13.396;2022-09-09T06:57:23;62650.44;;;-143.06;100.00
13422;BME280;6782;55.904;13.396;2022-09-09T07:00:11;62650.44;;;-143.06;100.00
13422;BME280;6782;55.904;13.396;2022-09-09T07:03:00;62650.44;;;-143.06;100.00
13422;BME280;6782;55.904;13.396;2022-09-09T07:05:55;62650.44;;;-143.06;100.00
13422;BME280;6782;55.904;13.396;2022-09-09T07:08:43;62650.44;;;-143.06;100.00
13422;BME280;6782;55.904;13.396;2022-09-09T07:11:32;62650.44;;;-143.06;100.00
13422;BME280;6782;55.904;13.396;2022-09-09T07:14:19;62650.44;;;-143.06;100.00
13422;BME280;6782;55.904;13.396;2022-09-09T07:17:06;62650.44;;;-143.06;100.00
13422;BME280;6782;55.904;13.396;2022-09-09T07:19:53;62650.44;;;-143.06;100.00
13422;BME280;6782;55.904;13.396;2022-09-09T07:22:43;62650.44;;;-143.06;100.00
13422;BME280;6782;55.904;13.396;2022-09-09T07:25:31;62650.44;;;-143.06;100.00
13422;BME280;6782;55.904;13.396;2022-09-09T07:28:18;62650.44;;;-143.06;100.00
13422;BME280;6782;55.904;13.396;2022-09-09T07:31:06;62650.44;;;-143.06;100.00
13422;BME280;6782;55.904;13.396;2022-09-09T07:33:54;62650.44;;;-143.06;100.00
13422;BME280;6782;55.904;13.396;2022-09-09T07:36:41;62650.44;;;-143.06;100.00
13422;BME280;6782;55.904;13.396;2022-09-09T07:39:30;62650.44;;;-143.06;100.00
13422;BME280;6782;55.904;13.396;2022-09-09T07:42:17;62650.44;;;-143.06;100.00
13422;BME280;6782;55.904;13.396;2022-09-09T07:45:05;62650.44;;;-143.06;100.00
13422;BME280;6782;55.904;13.396;2022-09-09T07:47:53;62650.44;;;-143.06;100.00
13422;BME280;6782;55.904;13.396;2022-09-09T07:50:42;62650.44;;;-143.06;100.00
13422;BME280;6782;55.904;13.396;2022-09-09T07:53:30;62650.44;;;-143.06;100.00
13422;BME280;6782;55.904;13.396;2022-09-09T07:56:19;62650.44;;;-143.06;100.00
13422;BME280;6782;55.904;13.396;2022-09-09T07:59:07;62650.44;;;-143.06;100.00
13422;BME280;6782;55.904;13.396;2022-09-09T08:01:56;62650.44;;;-143.06;100.00
13422;BME280;6782;55.904;13.396;2022-09-09T08:04:44;62650.44;;;-143.06;100.00
13422;BME280;6782;55.904;13.396;2022-09-09T08:07:32;62650.44;;;-143.06;100.00
13422;BME280;6782;55.904;13.396;2022-09-09T08:10:20;62650.44;;;-143.06;100.00
13422;BME280;6782;55.904;13.396;2022-09-09T08:13:10;62650.44;;;-143.06;100.00
13422;BME280;6782;55.904;13.396;2022-09-09T08:16:09;62650.44;;;-143.06;100.00
13422;BME280;6782;55.904;13.396;2022-09-09T08:18:57;62650.44;;;-143.06;100.00
13422;BME280;6782;55.904;13.396;2022-09-09T08:21:45;62650.44;;;-143.06;100.00
13422;BME280;6782;55.904;13.396;2022-09-09T08:24:34;62650.44;;;-143.06;100.00
13422;BME280;6782;55.904;13.396;2022-09-09T08:27:22;62650.44;;;-143.06;100.00
13422;BME280;6782;55.904;13.396;2022-09-09T08:30:12;62650.44;;;-143.06;100.00
13422;BME280;6782;55.904;13.396;2022-09-09T08:32:59;62650.44;;;-143.06;100.00
13422;BME280;6782;55.904;13.396;2022-09-09T08:35:50;62650.44;;;-143.06;100.00
13422;BME280;6782;55.904;13.396;2022-09-09T08:38:37;62650.44;;;-143.06;100.00
13422;BME280;6782;55.904;13.396;2022-09-09T08:41:52;62650.44;;;-143.06;100.00
13422;BME280;6782;55.904;13.396;2022-09-09T08:48:18;62650.44;;;-143.06;100.00
13422;BME280;6782;55.904;13.396;2022-09-09T08:51:10;62650.44;;;-143.06;100.00
13422;BME280;6782;55.904;13.396;2022-09-09T08:54:00;62650.44;;;-143.06;100.00
13422;BME280;6782;55.904;13.396;2022-09-09T08:56:51;62650.44;;;-143.06;100.00
13422;BME280;6782;55.904;13.396;2022-09-09T08:59:38;62650.44;;;-143.06;100.00
13422;BME280;6782;55.904;13.396;2022-09-09T09:02:32;62650.44;;;-143.06;100.00
13422;BME280;6782;55.904;13.396;2022-09-09T09:05:32;62650.44;;;-143.06;100.00
13422;BME280;6782;55.904;13.396;2022-09-09T09:08:28;62650.44;;;-143.06;100.00
13422;BME280;6782;55.904;13.396;2022-09-09T09:11:18;62650.44;;;-143.06;100.00
13422;BME280;6782;55.904;13.396;2022-09-09T09:14:10;62650.44;;;-143.06;100.00
13422;BME280;6782;55.904;13.396;2022-09-09T09:17:00;62650.44;;;-143.06;100.00
13422;BME280;6782;55.904;13.396;2022-09-09T09:19:49;62650.44;;;-143.06;100.00
13422;BME280;6782;55.904;13.396;2022-09-09T09:22:44;62650.44;;;-143.06;100.00
13422;BME280;6782;55.904;13.396;2022-09-09T09:25:35;62650.44;;;-143.06;100.00
13422;BME280;6782;55.904;13.396;2022-09-09T09:28:29;62650.44;;;-143.06;100.00
13422;BME280;6782;55.904;13.396;2022-09-09T09:31:18;62650.44;;;-143.06;100.00
13422;BME280;6782;55.904;13.396;2022-09-09T09:34:08;62650.44;;;-143.06;100.00
13422;BME280;6782;55.904;13.396;2022-09-09T09:36:57;62650.44;;;-143.06;100.00
13422;BME280;6782;55.904;13.396;2022-09-09T09:39:48;62650.44;;;-143.06;100.00
13422;BME280;6782;55.904;13.396;2022-09-09T09:42:36;62650.44;;;-143.06;100.00
13422;BME280;6782;55.904;13.396;2022-09-09T09:45:28;62650.44;;;-143.06;100.00
13422;BME280;6782;55.904;13.396;2022-09-09T09:48:17;62650.44;;;-143.06;100.00
13422;BME280;6782;55.904;13.396;2022-09-09T09:51:08;62650.44;;;-143.06;100.00
13422;BME280;6782;55.904;13.396;2022-09-09T09:54:09;62650.44;;;-143.06;100.00
13422;BME280;6782;55.904;13.396;2022-09-09T09:57:09;62650.44;;;-143.06;100.00
13422;BME280;6782;55.904;13.396;2022-09-09T10:00:04;62650.44;;;-143.06;100.00
13422;BME280;6782;55.904;13.396;2022-09-09T10:02:55;62650.44;;;-143.06;100.00
13422;BME280;6782;55.904;13.396;2022-09-09T10:05:45;62650.44;;;-143.06;100.00
13422;BME280;6782;55.904;13.396;2022-09-09T10:08:34;62650.44;;;-143.06;100.00
13422;BME280;6782;55.904;13.396;2022-09-09T10:11:44;62650.44;;;-143.06;100.00
13422;BME280;6782;55.904;13.396;2022-09-09T10:14:42;62650.44;;;-143.06;100.00
13422;BME280;6782;55.904;13.396;2022-09-09T10:17:35;62650.44;;;-143.06;100.00
13422;BME280;6782;55.904;13.396;2022-09-09T10:20:34;62650.44;;;-143.06;100.00
13422;BME280;6782;55.904;13.396;2022-09-09T10:23:39;62650.44;;;-143.06;100.00
13422;BME280;6782;55.904;13.396;2022-09-09T10:26:38;62650.44;;;-143.06;100.00
13422;BME280;6782;55.904;13.396;2022-09-09T10:29:47;62650.44;;;-143.06;100.00
13422;BME280;6782;55.904;13.396;2022-09-09T10:32:48;62650.44;;;-143.06;100.00
13422;BME280;6782;55.904;13.396;2022-09-09T10:35:41;62650.44;;;-143.06;100.00
13422;BME280;6782;55.904;13.396;2022-09-09T10:38:39;62650.44;;;-143.06;100.00
13422;BME280;6782;55.904;13.396;2022-09-09T10:41:44;62650.44;;;-143.06;100.00
13422;BME280;6782;55.904;13.396;2022-09-09T10:44:56;62650.44;;;-143.06;100.00
13422;BME280;6782;55.904;13.396;2022-09-09T10:51:22;67826.53;;;14.57;100.00
13422;BME280;6782;55.904;13.396;2022-09-09T10:54:21;67856.97;;;14.82;100.00
13422;BME280;6782;55.904;13.396;2022-09-09T10:57:14;88805.38;;;15.09;100.00
13422;BME280;6782;55.904;13.396;2022-09-09T11:00:14;67919.84;;;15.34;100.00
13422;BME280;6782;55.904;13.396;2022-09-09T11:03:04;67951.81;;;15.61;100.00
13422;BME280;6782;55.904;13.396;2022-09-09T11:05:56;67983.19;;;15.87;100.00
13422;BME280;6782;55.904;13.396;2022-09-09T11:08:45;68012.00;;;16.11;100.00
13422;BME280;6782;55.904;13.396;2022-09-09T11:11:36;83262.56;;;16.35;100.00
13422;BME280;6782;55.904;13.396;2022-09-09T11:14:29;68068.97;;;16.58;100.00
13422;BME280;6782;55.904;13.396;2022-09-09T11:17:22;68097.66;;;16.82;100.00
13422;BME280;6782;55.904;13.396;2022-09-09T11:20:12;68123.47;;;17.03;100.00
13422;BME280;6782;55.904;13.396;2022-09-09T11:23:03;68145.13;;;17.21;100.00
13422;BME280;6782;55.904;13.396;2022-09-09T11:25:55;68167.13;;;17.40;100.00
13422;BME280;6782;55.904;13.396;2022-09-09T11:28:55;68188.09;;;17.57;100.00
13422;BME280;6782;55.904;13.396;2022-09-09T11:31:59;68206.97;;;17.72;100.00
13422;BME280;6782;55.904;13.396;2022-09-09T11:34:58;68222.22;;;17.85;100.00
13422;BME280;6782;55.904;13.396;2022-09-09T11:37:57;68239.59;;;17.99;100.00
13422;BME280;6782;55.904;13.396;2022-09-09T11:40:55;68254.09;;;18.11;100.00
13422;BME280;6782;55.904;13.396;2022-09-09T11:43:45;52250.19;;;18.23;100.00
13422;BME280;6782;55.904;13.396;2022-09-09T11:46:35;62650.44;;;-143.06;100.00
13422;BME280;6782;55.904;13.396;2022-09-09T11:49:27;68289.16;;;-61.87;100.00
13422;BME280;6782;55.904;13.396;2022-09-09T11:52:37;62650.44;;;-143.06;100.00
13422;BME280;6782;55.904;13.396;2022-09-09T11:55:30;62650.44;;;-143.06;100.00
13422;BME280;6782;55.904;13.396;2022-09-09T11:58:23;62650.44;;;-143.06;100.00
13422;BME280;6782;55.904;13.396;2022-09-09T12:01:35;62650.44;;;-143.06;100.00
13422;BME280;6782;55.904;13.396;2022-09-09T12:04:33;62650.44;;;-143.06;100.00
13422;BME280;6782;55.904;13.396;2022-09-09T12:07:30;62650.44;;;-143.06;100.00
13422;BME280;6782;55.904;13.396;2022-09-09T12:10:25;62650.44;;;-143.06;100.00
13422;BME280;6782;55.904;13.396;2022-09-09T12:13:18;62650.44;;;-143.06;100.00
13422;BME280;6782;55.904;13.396;2022-09-09T12:16:31;62650.44;;;-143.06;100.00
13422;BME280;6782;55.904;13.396;2022-09-09T12:19:21;62650.44;;;-143.06;100.00
13422;BME280;6782;55.904;13.396;2022-09-09T12:22:19;62650.44;;;-143.06;100.00
13422;BME280;6782;55.904;13.396;2022-09-09T12:25:18;62650.44;;;-143.06;100.00
13422;BME280;6782;55.904;13.396;2022-09-09T12:28:13;62650.44;;;-143.06;100.00
13422;BME280;6782;55.904;13.396;2022-09-09T12:31:06;62650.44;;;-143.06;100.00
13422;BME280;6782;55.904;13.396;2022-09-09T12:34:06;62650.44;;;-143.06;100.00
13422;BME280;6782;55.904;13.396;2022-09-09T12:36:58;62650.44;;;-143.06;100.00
13422;BME280;6782;55.904;13.396;2022-09-09T12:39:52;62650.44;;;-143.06;100.00
13422;BME280;6782;55.904;13.396;2022-09-09T12:42:42;62650.44;;;-143.06;100.00
13422;BME280;6782;55.904;13.396;2022-09-09T12:45:32;62650.44;;;-143.06;100.00
13422;BME280;6782;55.904;13.396;2022-09-09T12:48:22;62650.44;;;-143.06;100.00
13422;BME280;6782;55.904;13.396;2022-09-09T12:51:19;62650.44;;;-143.06;100.00
13422;BME280;6782;55.904;13.396;2022-09-09T12:54:13;62650.44;;;-143.06;100.00
13422;BME280;6782;55.904;13.396;2022-09-09T12:57:01;62650.44;;;-143.06;100.00
13422;BME280;6782;55.904;13.396;2022-09-09T12:59:51;62650.44;;;-143.06;100.00
13422;BME280;6782;55.904;13.396;2022-09-09T13:02:47;62650.44;;;-143.06;100.00
13422;BME280;6782;55.904;13.396;2022-09-09T13:05:38;62650.44;;;-143.06;100.00
13422;BME280;6782;55.904;13.396;2022-09-09T13:08:26;62650.44;;;-143.06;100.00
13422;BME280;6782;55.904;13.396;2022-09-09T13:11:17;62650.44;;;-143.06;100.00
13422;BME280;6782;55.904;13.396;2022-09-09T13:14:14;62650.44;;;-143.06;100.00
13422;BME280;6782;55.904;13.396;2022-09-09T13:17:17;62650.44;;;-143.06;100.00
13422;BME280;6782;55.904;13.396;2022-09-09T13:20:05;62650.44;;;-143.06;100.00
13422;BME280;6782;55.904;13.396;2022-09-09T13:22:55;62650.44;;;-143.06;100.00
13422;BME280;6782;55.904;13.396;2022-09-09T13:25:54;62650.44;;;-143.06;100.00
13422;BME280;6782;55.904;13.396;2022-09-09T13:28:44;62650.44;;;-143.06;100.00
13422;BME280;6782;55.904;13.396;2022-09-09T13:31:35;62650.44;;;-143.06;100.00
13422;BME280;6782;55.904;13.396;2022-09-09T13:34:28;62650.44;;;-143.06;100.00
13422;BME280;6782;55.904;13.396;2022-09-09T13:37:22;62650.44;;;-143.06;100.00
13422;BME280;6782;55.904;13.396;2022-09-09T13:40:17;62650.44;;;-143.06;100.00
13422;BME280;6782;55.904;13.396;2022-09-09T13:43:10;62650.44;;;-143.06;100.00
13422;BME280;6782;55.904;13.396;2022-09-09T13:46:03;62650.44;;;-143.06;100.00
13422;BME280;6782;55.904;13.396;2022-09-09T13:48:54;62650.44;;;-143.06;100.00
13422;BME280;6782;55.904;13.396;2022-09-09T13:51:44;62650.44;;;-143.06;100.00
13422;BME280;6782;55.904;13.396;2022-09-09T13:54:32;62650.44;;;-143.06;100.00
13422;BME280;6782;55.904;13.396;2022-09-09T13:57:22;62650.44;;;-143.06;100.00
13422;BME280;6782;55.904;13.396;2022-09-09T14:00:11;62650.44;;;-143.06;100.00
13422;BME280;6782;55.904;13.396;2022-09-09T14:02:59;62650.44;;;-143.06;100.00
13422;BME280;6782;55.904;13.396;2022-09-09T14:05:47;62650.44;;;-143.06;100.00
13422;BME280;6782;55.904;13.396;2022-09-09T14:08:36;62650.44;;;-143.06;100.00
13422;BME280;6782;55.904;13.396;2022-09-09T14:11:24;62650.44;;;-143.06;100.00
13422;BME280;6782;55.904;13.396;2022-09-09T14:14:11;62650.44;;;-143.06;100.00
13422;BME280;6782;55.904;13.396;2022-09-09T14:16:59;62650.44;;;-143.06;100.00
13422;BME280;6782;55.904;13.396;2022-09-09T14:19:46;62650.44;;;-143.06;100.00
13422;BME280;6782;55.904;13.396;2022-09-09T14:22:33;62650.44;;;-143.06;100.00
13422;BME280;6782;55.904;13.396;2022-09-09T14:25:22;62650.44;;;-143.06;100.00
13422;BME280;6782;55.904;13.396;2022-09-09T14:28:10;62650.44;;;-143.06;100.00
13422;BME280;6782;55.904;13.396;2022-09-09T14:30:59;62650.44;;;-143.06;100.00
13422;BME280;6782;55.904;13.396;2022-09-09T14:33:50;62650.44;;;-143.06;100.00
13422;BME280;6782;55.904;13.396;2022-09-09T14:40:36;62650.44;;;-143.06;100.00
13422;BME280;6782;55.904;13.396;2022-09-09T14:43:24;62650.44;;;-143.06;100.00
13422;BME280;6782;55.904;13.396;2022-09-09T14:46:14;62650.44;;;-143.06;100.00
13422;BME280;6782;55.904;13.396;2022-09-09T14:49:03;62650.44;;;-143.06;100.00
13422;BME280;6782;55.904;13.396;2022-09-09T14:55:21;62650.44;;;-143.06;100.00
13422;BME280;6782;55.904;13.396;2022-09-09T15:08:52;62650.44;;;-143.06;100.00